sensor_id;sensor_type;location;lat;lon;timestamp;P1;durP1;ratioP1;P2;durP2;ratioP2
53411;SDS011;39307;52.870;13.660;2023-02-04T00:00:06;5.60;;;1.88;;
53411;SDS011;39307;52.870;13.660;2023-02-04T00:02:33;4.00;;;1.30;;
53411;SDS011;39307;52.870;13.660;2023-02-04T00:04:59;5.03;;;1.55;;
53411;SDS011;39307;52.870;13.660;2023-02-04T00:07:26;4.10;;;1.48;;
53411;SDS011;39307;52.870;13.660;2023-02-04T00:09:53;3.67;;;1.40;;
53411;SDS011;39307;52.870;13.660;2023-02-04T00:12:19;4.47;;;1.67;;
53411;SDS011;39307;52.870;13.660;2023-02-04T00:14:45;4.05;;;1.70;;
53411;SDS011;39307;52.870;13.660;2023-02-04T00:17:11;3.38;;;1.38;;
53411;SDS011;39307;52.870;13.660;2023-02-04T00:19:38;3.58;;;1.38;;
53411;SDS011;39307;52.870;13.660;2023-02-04T00:22:05;3.90;;;1.40;;
53411;SDS011;39307;52.870;13.660;2023-02-04T00:24:31;4.80;;;1.60;;
53411;SDS011;39307;52.870;13.660;2023-02-04T00:26:58;5.40;;;1.40;;
53411;SDS011;39307;52.870;13.660;2023-02-04T00:29:25;4.30;;;1.60;;
53411;SDS011;39307;52.870;13.660;2023-02-04T00:31:51;5.28;;;1.67;;
53411;SDS011;39307;52.870;13.660;2023-02-04T00:34:17;4.43;;;1.40;;
53411;SDS011;39307;52.870;13.660;2023-02-04T00:36:43;5.63;;;1.50;;
53411;SDS011;39307;52.870;13.660;2023-02-04T00:39:09;3.88;;;1.50;;
53411;SDS011;39307;52.870;13.660;2023-02-04T00:41:36;4.13;;;1.25;;
53411;SDS011;39307;52.870;13.660;2023-02-04T00:44:02;3.85;;;1.20;;
53411;SDS011;39307;52.870;13.660;2023-02-04T00:46:28;5.38;;;1.60;;
53411;SDS011;39307;52.870;13.660;2023-02-04T00:48:55;3.97;;;1.50;;
53411;SDS011;39307;52.870;13.660;2023-02-04T00:51:21;6.97;;;1.40;;
53411;SDS011;39307;52.870;13.660;2023-02-04T00:53:47;4.40;;;1.50;;
53411;SDS011;39307;52.870;13.660;2023-02-04T00:56:13;3.63;;;1.33;;
53411;SDS011;39307;52.870;13.660;2023-02-04T00:58:39;6.55;;;1.60;;
53411;SDS011;39307;52.870;13.660;2023-02-04T01:01:05;3.75;;;1.20;;
53411;SDS011;39307;52.870;13.660;2023-02-04T01:03:32;4.25;;;1.17;;
53411;SDS011;39307;52.870;13.660;2023-02-04T01:05:58;4.23;;;1.20;;
53411;SDS011;39307;52.870;13.660;2023-02-04T01:08:24;5.43;;;1.40;;
53411;SDS011;39307;52.870;13.660;2023-02-04T01:10:50;3.53;;;1.00;;
53411;SDS011;39307;52.870;13.660;2023-02-04T01:13:16;3.65;;;1.25;;
53411;SDS011;39307;52.870;13.660;2023-02-04T01:15:42;4.35;;;1.02;;
53411;SDS011;39307;52.870;13.660;2023-02-04T01:18:08;4.10;;;0.90;;
53411;SDS011;39307;52.870;13.660;2023-02-04T01:20:36;5.07;;;1.20;;
53411;SDS011;39307;52.870;13.660;2023-02-04T01:23:02;4.40;;;1.20;;
53411;SDS011;39307;52.870;13.660;2023-02-04T01:25:28;2.83;;;0.90;;
53411;SDS011;39307;52.870;13.660;2023-02-04T01:27:55;2.83;;;1.10;;
53411;SDS011;39307;52.870;13.660;2023-02-04T01:30:21;3.08;;;1.00;;
53411;SDS011;39307;52.870;13.660;2023-02-04T01:32:47;5.00;;;1.30;;
53411;SDS011;39307;52.870;13.660;2023-02-04T01:35:13;3.85;;;1.20;;
53411;SDS011;39307;52.870;13.660;2023-02-04T01:37:39;3.53;;;1.10;;
53411;SDS011;39307;52.870;13.660;2023-02-04T01:40:06;3.78;;;1.10;;
53411;SDS011;39307;52.870;13.660;2023-02-04T01:42:32;3.92;;;1.13;;
53411;SDS011;39307;52.870;13.660;2023-02-04T01:44:59;4.30;;;1.10;;
53411;SDS011;39307;52.870;13.660;2023-02-04T01:47:25;2.83;;;1.00;;
53411;SDS011;39307;52.870;13.660;2023-02-04T01:49:52;4.70;;;1.20;;
53411;SDS011;39307;52.870;13.660;2023-02-04T01:52:19;4.20;;;1.10;;
53411;SDS011;39307;52.870;13.660;2023-02-04T01:54:46;4.38;;;1.10;;
53411;SDS011;39307;52.870;13.660;2023-02-04T01:57:13;4.13;;;1.20;;
53411;SDS011;39307;52.870;13.660;2023-02-04T01:59:43;3.45;;;1.00;;
53411;SDS011;39307;52.870;13.660;2023-02-04T02:05:10;3.25;;;1.10;;
53411;SDS011;39307;52.870;13.660;2023-02-04T02:07:40;3.87;;;1.33;;
53411;SDS011;39307;52.870;13.660;2023-02-04T02:10:06;6.05;;;1.52;;
53411;SDS011;39307;52.870;13.660;2023-02-04T02:12:34;4.00;;;1.13;;
53411;SDS011;39307;52.870;13.660;2023-02-04T02:15:01;4.17;;;1.30;;
53411;SDS011;39307;52.870;13.660;2023-02-04T02:17:27;2.65;;;1.13;;
53411;SDS011;39307;52.870;13.660;2023-02-04T02:19:53;4.68;;;1.25;;
53411;SDS011;39307;52.870;13.660;2023-02-04T02:22:31;4.47;;;1.23;;
53411;SDS011;39307;52.870;13.660;2023-02-04T02:25:16;5.50;;;1.40;;
53411;SDS011;39307;52.870;13.660;2023-02-04T02:27:42;3.90;;;1.10;;
53411;SDS011;39307;52.870;13.660;2023-02-04T02:30:09;3.53;;;1.23;;
53411;SDS011;39307;52.870;13.660;2023-02-04T02:32:37;5.50;;;1.40;;
53411;SDS011;39307;52.870;13.660;2023-02-04T02:35:03;4.87;;;1.57;;
53411;SDS011;39307;52.870;13.660;2023-02-04T02:37:30;4.57;;;1.40;;
53411;SDS011;39307;52.870;13.660;2023-02-04T02:39:57;2.60;;;1.08;;
53411;SDS011;39307;52.870;13.660;2023-02-04T02:42:23;4.50;;;1.45;;
53411;SDS011;39307;52.870;13.660;2023-02-04T02:44:49;4.35;;;1.20;;
53411;SDS011;39307;52.870;13.660;2023-02-04T02:47:16;3.35;;;1.20;;
53411;SDS011;39307;52.870;13.660;2023-02-04T02:49:44;3.80;;;1.10;;
53411;SDS011;39307;52.870;13.660;2023-02-04T02:52:12;4.18;;;1.20;;
53411;SDS011;39307;52.870;13.660;2023-02-04T02:54:39;4.35;;;1.30;;
53411;SDS011;39307;52.870;13.660;2023-02-04T02:57:15;4.65;;;1.23;;
53411;SDS011;39307;52.870;13.660;2023-02-04T02:59:45;3.77;;;1.10;;
53411;SDS011;39307;52.870;13.660;2023-02-04T03:02:12;4.22;;;1.30;;
53411;SDS011;39307;52.870;13.660;2023-02-04T03:04:42;4.10;;;1.13;;
53411;SDS011;39307;52.870;13.660;2023-02-04T03:07:12;3.22;;;0.90;;
53411;SDS011;39307;52.870;13.660;2023-02-04T03:09:40;4.25;;;1.10;;
53411;SDS011;39307;52.870;13.660;2023-02-04T03:12:06;2.83;;;0.87;;
53411;SDS011;39307;52.870;13.660;2023-02-04T03:14:32;4.65;;;1.17;;
53411;SDS011;39307;52.870;13.660;2023-02-04T03:17:00;3.85;;;1.20;;
53411;SDS011;39307;52.870;13.660;2023-02-04T03:19:27;4.80;;;1.27;;
53411;SDS011;39307;52.870;13.660;2023-02-04T03:21:53;2.67;;;0.70;;
53411;SDS011;39307;52.870;13.660;2023-02-04T03:24:21;5.78;;;1.20;;
53411;SDS011;39307;52.870;13.660;2023-02-04T03:26:48;4.00;;;1.20;;
53411;SDS011;39307;52.870;13.660;2023-02-04T03:29:15;4.88;;;1.20;;
53411;SDS011;39307;52.870;13.660;2023-02-04T03:31:41;4.00;;;1.03;;
53411;SDS011;39307;52.870;13.660;2023-02-04T03:34:07;4.70;;;1.33;;
53411;SDS011;39307;52.870;13.660;2023-02-04T03:36:33;4.78;;;1.38;;
53411;SDS011;39307;52.870;13.660;2023-02-04T03:38:59;3.63;;;1.10;;
53411;SDS011;39307;52.870;13.660;2023-02-04T03:41:25;3.75;;;1.10;;
53411;SDS011;39307;52.870;13.660;2023-02-04T03:43:51;3.42;;;1.00;;
53411;SDS011;39307;52.870;13.660;2023-02-04T03:46:17;3.95;;;1.23;;
53411;SDS011;39307;52.870;13.660;2023-02-04T03:48:44;4.75;;;1.10;;
53411;SDS011;39307;52.870;13.660;2023-02-04T03:51:10;3.45;;;1.10;;
53411;SDS011;39307;52.870;13.660;2023-02-04T03:53:36;3.90;;;0.90;;
53411;SDS011;39307;52.870;13.660;2023-02-04T03:56:02;3.78;;;1.05;;
53411;SDS011;39307;52.870;13.660;2023-02-04T03:58:28;5.13;;;1.10;;
53411;SDS011;39307;52.870;13.660;2023-02-04T04:00:54;3.80;;;0.85;;
53411;SDS011;39307;52.870;13.660;2023-02-04T04:03:20;3.20;;;1.17;;
53411;SDS011;39307;52.870;13.660;2023-02-04T04:05:46;6.00;;;1.05;;
53411;SDS011;39307;52.870;13.660;2023-02-04T04:08:13;2.95;;;0.90;;
53411;SDS011;39307;52.870;13.660;2023-02-04T04:10:39;4.07;;;1.10;;
53411;SDS011;39307;52.870;13.660;2023-02-04T04:13:05;6.50;;;1.05;;
53411;SDS011;39307;52.870;13.660;2023-02-04T04:15:31;3.17;;;0.90;;
53411;SDS011;39307;52.870;13.660;2023-02-04T04:17:58;4.90;;;1.23;;
53411;SDS011;39307;52.870;13.660;2023-02-04T04:20:24;6.13;;;1.33;;
53411;SDS011;39307;52.870;13.660;2023-02-04T04:22:50;4.47;;;1.20;;
53411;SDS011;39307;52.870;13.660;2023-02-04T04:25:17;5.43;;;1.10;;
53411;SDS011;39307;52.870;13.660;2023-02-04T04:27:43;5.20;;;1.27;;
53411;SDS011;39307;52.870;13.660;2023-02-04T04:30:10;3.58;;;1.20;;
53411;SDS011;39307;52.870;13.660;2023-02-04T04:32:36;3.78;;;1.10;;
53411;SDS011;39307;52.870;13.660;2023-02-04T04:35:03;3.72;;;1.10;;
53411;SDS011;39307;52.870;13.660;2023-02-04T04:37:29;4.95;;;1.10;;
53411;SDS011;39307;52.870;13.660;2023-02-04T04:39:55;6.30;;;1.35;;
53411;SDS011;39307;52.870;13.660;2023-02-04T04:42:21;4.65;;;1.20;;
53411;SDS011;39307;52.870;13.660;2023-02-04T04:44:47;3.95;;;0.98;;
53411;SDS011;39307;52.870;13.660;2023-02-04T04:47:14;4.07;;;1.20;;
53411;SDS011;39307;52.870;13.660;2023-02-04T04:49:40;5.13;;;1.10;;
53411;SDS011;39307;52.870;13.660;2023-02-04T04:52:06;4.10;;;1.15;;
53411;SDS011;39307;52.870;13.660;2023-02-04T04:54:32;6.65;;;1.25;;
53411;SDS011;39307;52.870;13.660;2023-02-04T04:56:58;3.95;;;1.08;;
53411;SDS011;39307;52.870;13.660;2023-02-04T04:59:24;3.63;;;0.90;;
53411;SDS011;39307;52.870;13.660;2023-02-04T05:01:51;2.67;;;0.90;;
53411;SDS011;39307;52.870;13.660;2023-02-04T05:04:17;4.60;;;1.10;;
53411;SDS011;39307;52.870;13.660;2023-02-04T05:06:43;5.20;;;1.10;;
53411;SDS011;39307;52.870;13.660;2023-02-04T05:09:09;5.22;;;1.08;;
53411;SDS011;39307;52.870;13.660;2023-02-04T05:11:38;4.30;;;1.00;;
53411;SDS011;39307;52.870;13.660;2023-02-04T05:14:04;4.47;;;0.90;;
53411;SDS011;39307;52.870;13.660;2023-02-04T05:16:30;4.47;;;1.00;;
53411;SDS011;39307;52.870;13.660;2023-02-04T05:18:57;3.45;;;0.90;;
53411;SDS011;39307;52.870;13.660;2023-02-04T05:21:23;4.53;;;1.13;;
53411;SDS011;39307;52.870;13.660;2023-02-04T05:23:49;4.63;;;1.00;;
53411;SDS011;39307;52.870;13.660;2023-02-04T05:26:15;3.35;;;0.93;;
53411;SDS011;39307;52.870;13.660;2023-02-04T05:28:41;3.83;;;1.00;;
53411;SDS011;39307;52.870;13.660;2023-02-04T05:31:07;5.28;;;1.10;;
53411;SDS011;39307;52.870;13.660;2023-02-04T05:33:34;3.00;;;0.80;;
53411;SDS011;39307;52.870;13.660;2023-02-04T05:36:00;2.78;;;0.88;;
53411;SDS011;39307;52.870;13.660;2023-02-04T05:38:26;3.80;;;0.90;;
53411;SDS011;39307;52.870;13.660;2023-02-04T05:40:52;3.58;;;0.93;;
53411;SDS011;39307;52.870;13.660;2023-02-04T05:43:18;4.45;;;1.10;;
53411;SDS011;39307;52.870;13.660;2023-02-04T05:45:44;3.70;;;1.02;;
53411;SDS011;39307;52.870;13.660;2023-02-04T05:48:11;5.38;;;1.17;;
53411;SDS011;39307;52.870;13.660;2023-02-04T05:50:37;5.30;;;1.23;;
53411;SDS011;39307;52.870;13.660;2023-02-04T05:53:03;3.33;;;1.00;;
53411;SDS011;39307;52.870;13.660;2023-02-04T05:55:29;3.55;;;1.10;;
53411;SDS011;39307;52.870;13.660;2023-02-04T05:57:55;3.97;;;1.10;;
53411;SDS011;39307;52.870;13.660;2023-02-04T06:00:21;3.63;;;0.90;;
53411;SDS011;39307;52.870;13.660;2023-02-04T06:02:47;4.38;;;1.13;;
53411;SDS011;39307;52.870;13.660;2023-02-04T06:05:14;3.47;;;0.85;;
53411;SDS011;39307;52.870;13.660;2023-02-04T06:07:40;3.35;;;0.93;;
53411;SDS011;39307;52.870;13.660;2023-02-04T06:10:06;4.25;;;1.10;;
53411;SDS011;39307;52.870;13.660;2023-02-04T06:12:32;3.10;;;0.90;;
53411;SDS011;39307;52.870;13.660;2023-02-04T06:14:58;4.50;;;1.20;;
53411;SDS011;39307;52.870;13.660;2023-02-04T06:17:25;4.15;;;1.00;;
53411;SDS011;39307;52.870;13.660;2023-02-04T06:19:51;6.13;;;1.30;;
53411;SDS011;39307;52.870;13.660;2023-02-04T06:22:17;4.28;;;1.30;;
53411;SDS011;39307;52.870;13.660;2023-02-04T06:24:43;4.97;;;1.30;;
53411;SDS011;39307;52.870;13.660;2023-02-04T06:27:09;5.22;;;1.00;;
53411;SDS011;39307;52.870;13.660;2023-02-04T06:29:36;4.05;;;1.02;;
53411;SDS011;39307;52.870;13.660;2023-02-04T06:32:02;5.43;;;1.20;;
53411;SDS011;39307;52.870;13.660;2023-02-04T06:34:28;5.35;;;1.27;;
53411;SDS011;39307;52.870;13.660;2023-02-04T06:36:54;3.60;;;1.05;;
53411;SDS011;39307;52.870;13.660;2023-02-04T06:39:20;5.20;;;1.17;;
53411;SDS011;39307;52.870;13.660;2023-02-04T06:41:47;3.08;;;0.93;;
53411;SDS011;39307;52.870;13.660;2023-02-04T06:44:13;5.80;;;1.30;;
53411;SDS011;39307;52.870;13.660;2023-02-04T06:46:39;3.70;;;1.13;;
53411;SDS011;39307;52.870;13.660;2023-02-04T06:49:05;3.50;;;1.10;;
53411;SDS011;39307;52.870;13.660;2023-02-04T06:51:31;4.63;;;1.00;;
53411;SDS011;39307;52.870;13.660;2023-02-04T06:53:58;4.85;;;1.23;;
53411;SDS011;39307;52.870;13.660;2023-02-04T06:56:24;5.45;;;1.10;;
53411;SDS011;39307;52.870;13.660;2023-02-04T06:58:50;3.58;;;1.20;;
53411;SDS011;39307;52.870;13.660;2023-02-04T07:01:17;4.30;;;1.10;;
53411;SDS011;39307;52.870;13.660;2023-02-04T07:03:43;4.30;;;1.17;;
53411;SDS011;39307;52.870;13.660;2023-02-04T07:06:09;4.27;;;1.30;;
53411;SDS011;39307;52.870;13.660;2023-02-04T07:08:35;4.82;;;1.10;;
53411;SDS011;39307;52.870;13.660;2023-02-04T07:11:01;4.18;;;1.27;;
53411;SDS011;39307;52.870;13.660;2023-02-04T07:13:28;5.97;;;1.38;;
53411;SDS011;39307;52.870;13.660;2023-02-04T07:15:54;4.55;;;1.20;;
53411;SDS011;39307;52.870;13.660;2023-02-04T07:18:20;4.22;;;1.15;;
53411;SDS011;39307;52.870;13.660;2023-02-04T07:20:46;5.60;;;1.52;;
53411;SDS011;39307;52.870;13.660;2023-02-04T07:23:13;5.60;;;1.20;;
53411;SDS011;39307;52.870;13.660;2023-02-04T07:25:39;5.63;;;1.50;;
53411;SDS011;39307;52.870;13.660;2023-02-04T07:28:05;7.63;;;1.67;;
53411;SDS011;39307;52.870;13.660;2023-02-04T07:30:32;3.70;;;1.20;;
53411;SDS011;39307;52.870;13.660;2023-02-04T07:32:58;4.53;;;1.40;;
53411;SDS011;39307;52.870;13.660;2023-02-04T07:35:24;5.17;;;1.40;;
53411;SDS011;39307;52.870;13.660;2023-02-04T07:37:50;5.35;;;1.35;;
53411;SDS011;39307;52.870;13.660;2023-02-04T07:40:16;5.75;;;1.60;;
53411;SDS011;39307;52.870;13.660;2023-02-04T07:42:42;5.47;;;1.40;;
53411;SDS011;39307;52.870;13.660;2023-02-04T07:45:09;6.13;;;1.58;;
53411;SDS011;39307;52.870;13.660;2023-02-04T07:47:35;3.97;;;1.30;;
53411;SDS011;39307;52.870;13.660;2023-02-04T07:50:01;3.73;;;1.47;;
53411;SDS011;39307;52.870;13.660;2023-02-04T07:52:27;5.05;;;1.50;;
53411;SDS011;39307;52.870;13.660;2023-02-04T07:54:53;4.22;;;1.70;;
53411;SDS011;39307;52.870;13.660;2023-02-04T07:57:19;4.63;;;1.40;;
53411;SDS011;39307;52.870;13.660;2023-02-04T07:59:46;5.47;;;1.60;;
53411;SDS011;39307;52.870;13.660;2023-02-04T08:02:12;25.73;;;17.23;;
53411;SDS011;39307;52.870;13.660;2023-02-04T08:04:38;30.25;;;21.20;;
53411;SDS011;39307;52.870;13.660;2023-02-04T08:07:04;38.60;;;28.30;;
53411;SDS011;39307;52.870;13.660;2023-02-04T08:09:30;62.88;;;49.83;;
53411;SDS011;39307;52.870;13.660;2023-02-04T08:11:57;32.67;;;25.67;;
53411;SDS011;39307;52.870;13.660;2023-02-04T08:14:23;11.63;;;7.17;;
53411;SDS011;39307;52.870;13.660;2023-02-04T08:16:49;27.52;;;19.02;;
53411;SDS011;39307;52.870;13.660;2023-02-04T08:19:15;22.70;;;15.90;;
53411;SDS011;39307;52.870;13.660;2023-02-04T08:21:41;44.80;;;35.70;;
53411;SDS011;39307;52.870;13.660;2023-02-04T08:24:07;20.38;;;14.68;;
53411;SDS011;39307;52.870;13.660;2023-02-04T08:26:33;27.35;;;20.60;;
53411;SDS011;39307;52.870;13.660;2023-02-04T08:28:59;29.17;;;14.50;;
53411;SDS011;39307;52.870;13.660;2023-02-04T08:31:26;96.15;;;77.55;;
53411;SDS011;39307;52.870;13.660;2023-02-04T08:33:52;82.13;;;50.40;;
53411;SDS011;39307;52.870;13.660;2023-02-04T08:36:18;63.72;;;41.30;;
53411;SDS011;39307;52.870;13.660;2023-02-04T08:38:44;18.65;;;10.52;;
53411;SDS011;39307;52.870;13.660;2023-02-04T08:41:10;28.42;;;19.63;;
53411;SDS011;39307;52.870;13.660;2023-02-04T08:43:36;23.10;;;16.38;;
53411;SDS011;39307;52.870;13.660;2023-02-04T08:46:03;18.15;;;12.90;;
53411;SDS011;39307;52.870;13.660;2023-02-04T08:48:29;14.32;;;8.43;;
53411;SDS011;39307;52.870;13.660;2023-02-04T08:50:56;8.68;;;6.07;;
53411;SDS011;39307;52.870;13.660;2023-02-04T08:53:22;6.67;;;3.13;;
53411;SDS011;39307;52.870;13.660;2023-02-04T08:55:48;9.70;;;4.00;;
53411;SDS011;39307;52.870;13.660;2023-02-04T08:58:14;7.57;;;3.03;;
53411;SDS011;39307;52.870;13.660;2023-02-04T09:00:40;7.57;;;1.33;;
53411;SDS011;39307;52.870;13.660;2023-02-04T09:03:06;5.47;;;1.50;;
53411;SDS011;39307;52.870;13.660;2023-02-04T09:05:32;8.45;;;3.70;;
53411;SDS011;39307;52.870;13.660;2023-02-04T09:07:58;6.55;;;3.13;;
53411;SDS011;39307;52.870;13.660;2023-02-04T09:10:24;5.20;;;2.20;;
53411;SDS011;39307;52.870;13.660;2023-02-04T09:12:50;5.97;;;2.50;;
53411;SDS011;39307;52.870;13.660;2023-02-04T09:15:16;6.25;;;2.60;;
53411;SDS011;39307;52.870;13.660;2023-02-04T09:17:43;8.43;;;2.23;;
53411;SDS011;39307;52.870;13.660;2023-02-04T09:20:09;5.75;;;1.60;;
53411;SDS011;39307;52.870;13.660;2023-02-04T09:22:35;5.68;;;2.10;;
53411;SDS011;39307;52.870;13.660;2023-02-04T09:25:02;6.22;;;1.95;;
53411;SDS011;39307;52.870;13.660;2023-02-04T09:27:28;5.00;;;1.38;;
53411;SDS011;39307;52.870;13.660;2023-02-04T09:29:54;4.32;;;1.33;;
53411;SDS011;39307;52.870;13.660;2023-02-04T09:32:20;5.18;;;1.52;;
53411;SDS011;39307;52.870;13.660;2023-02-04T09:34:46;5.75;;;1.85;;
53411;SDS011;39307;52.870;13.660;2023-02-04T09:37:12;7.72;;;1.60;;
53411;SDS011;39307;52.870;13.660;2023-02-04T09:39:39;4.70;;;1.70;;
53411;SDS011;39307;52.870;13.660;2023-02-04T09:42:05;6.40;;;1.52;;
53411;SDS011;39307;52.870;13.660;2023-02-04T09:44:33;3.50;;;1.17;;
53411;SDS011;39307;52.870;13.660;2023-02-04T09:46:59;5.43;;;1.53;;
53411;SDS011;39307;52.870;13.660;2023-02-04T09:49:25;4.68;;;1.30;;
53411;SDS011;39307;52.870;13.660;2023-02-04T09:51:52;4.87;;;1.27;;
53411;SDS011;39307;52.870;13.660;2023-02-04T09:54:19;3.72;;;1.17;;
53411;SDS011;39307;52.870;13.660;2023-02-04T09:56:47;3.65;;;1.05;;
53411;SDS011;39307;52.870;13.660;2023-02-04T09:59:22;4.40;;;1.42;;
53411;SDS011;39307;52.870;13.660;2023-02-04T10:01:58;6.35;;;2.78;;
53411;SDS011;39307;52.870;13.660;2023-02-04T10:04:26;12.73;;;5.18;;
53411;SDS011;39307;52.870;13.660;2023-02-04T10:06:52;6.80;;;1.80;;
53411;SDS011;39307;52.870;13.660;2023-02-04T10:09:21;4.18;;;1.83;;
53411;SDS011;39307;52.870;13.660;2023-02-04T10:11:47;5.10;;;2.13;;
53411;SDS011;39307;52.870;13.660;2023-02-04T10:14:18;3.67;;;1.25;;
53411;SDS011;39307;52.870;13.660;2023-02-04T10:16:50;3.30;;;1.00;;
53411;SDS011;39307;52.870;13.660;2023-02-04T10:19:23;4.68;;;1.08;;
53411;SDS011;39307;52.870;13.660;2023-02-04T10:21:49;4.03;;;1.00;;
53411;SDS011;39307;52.870;13.660;2023-02-04T10:24:16;2.33;;;0.90;;
53411;SDS011;39307;52.870;13.660;2023-02-04T10:26:44;3.20;;;1.10;;
53411;SDS011;39307;52.870;13.660;2023-02-04T10:29:14;4.35;;;1.10;;
53411;SDS011;39307;52.870;13.660;2023-02-04T10:31:43;4.03;;;1.10;;
53411;SDS011;39307;52.870;13.660;2023-02-04T10:36:41;4.57;;;1.35;;
53411;SDS011;39307;52.870;13.660;2023-02-04T10:39:12;3.97;;;1.08;;
53411;SDS011;39307;52.870;13.660;2023-02-04T10:41:44;5.55;;;1.40;;
53411;SDS011;39307;52.870;13.660;2023-02-04T10:44:15;3.63;;;1.00;;
53411;SDS011;39307;52.870;13.660;2023-02-04T10:46:43;3.60;;;0.90;;
53411;SDS011;39307;52.870;13.660;2023-02-04T10:49:22;5.67;;;1.23;;
53411;SDS011;39307;52.870;13.660;2023-02-04T10:51:49;5.05;;;1.17;;
53411;SDS011;39307;52.870;13.660;2023-02-04T10:54:17;3.33;;;0.70;;
53411;SDS011;39307;52.870;13.660;2023-02-04T10:56:45;3.80;;;1.00;;
53411;SDS011;39307;52.870;13.660;2023-02-04T10:59:22;2.95;;;0.80;;
53411;SDS011;39307;52.870;13.660;2023-02-04T11:01:51;3.38;;;0.88;;
53411;SDS011;39307;52.870;13.660;2023-02-04T11:04:17;2.97;;;0.80;;
53411;SDS011;39307;52.870;13.660;2023-02-04T11:09:46;5.80;;;1.00;;
53411;SDS011;39307;52.870;13.660;2023-02-04T11:12:20;2.80;;;0.80;;
53411;SDS011;39307;52.870;13.660;2023-02-04T11:14:54;3.58;;;0.90;;
53411;SDS011;39307;52.870;13.660;2023-02-04T11:17:27;3.63;;;0.77;;
53411;SDS011;39307;52.870;13.660;2023-02-04T11:19:56;2.88;;;0.70;;
53411;SDS011;39307;52.870;13.660;2023-02-04T11:22:23;2.95;;;0.68;;
53411;SDS011;39307;52.870;13.660;2023-02-04T11:27:58;4.15;;;0.93;;
53411;SDS011;39307;52.870;13.660;2023-02-04T11:30:29;3.30;;;0.80;;
53411;SDS011;39307;52.870;13.660;2023-02-04T11:33:01;2.72;;;0.65;;
53411;SDS011;39307;52.870;13.660;2023-02-04T11:35:28;2.40;;;0.70;;
53411;SDS011;39307;52.870;13.660;2023-02-04T11:37:58;1.98;;;0.60;;
53411;SDS011;39307;52.870;13.660;2023-02-04T11:42:56;3.00;;;0.80;;
53411;SDS011;39307;52.870;13.660;2023-02-04T11:45:34;2.55;;;0.68;;
53411;SDS011;39307;52.870;13.660;2023-02-04T11:48:02;3.13;;;0.90;;
53411;SDS011;39307;52.870;13.660;2023-02-04T11:50:36;2.55;;;0.70;;
53411;SDS011;39307;52.870;13.660;2023-02-04T11:53:03;2.08;;;0.65;;
53411;SDS011;39307;52.870;13.660;2023-02-04T11:55:30;3.00;;;0.73;;
53411;SDS011;39307;52.870;13.660;2023-02-04T11:58:00;2.20;;;0.77;;
53411;SDS011;39307;52.870;13.660;2023-02-04T12:00:30;4.15;;;0.90;;
53411;SDS011;39307;52.870;13.660;2023-02-04T12:02:59;2.33;;;0.65;;
53411;SDS011;39307;52.870;13.660;2023-02-04T12:05:39;2.22;;;0.70;;
53411;SDS011;39307;52.870;13.660;2023-02-04T12:08:11;2.30;;;0.60;;
53411;SDS011;39307;52.870;13.660;2023-02-04T12:10:59;2.83;;;0.55;;
53411;SDS011;39307;52.870;13.660;2023-02-04T12:13:31;2.70;;;0.80;;
53411;SDS011;39307;52.870;13.660;2023-02-04T12:15:59;1.95;;;0.60;;
53411;SDS011;39307;52.870;13.660;2023-02-04T12:18:30;2.23;;;0.57;;
53411;SDS011;39307;52.870;13.660;2023-02-04T12:20:58;1.50;;;0.40;;
53411;SDS011;39307;52.870;13.660;2023-02-04T12:23:26;1.77;;;0.50;;
53411;SDS011;39307;52.870;13.660;2023-02-04T12:25:53;2.92;;;0.80;;
53411;SDS011;39307;52.870;13.660;2023-02-04T12:28:20;4.35;;;1.33;;
53411;SDS011;39307;52.870;13.660;2023-02-04T12:30:46;6.07;;;2.63;;
53411;SDS011;39307;52.870;13.660;2023-02-04T12:35:58;4.43;;;1.30;;
53411;SDS011;39307;52.870;13.660;2023-02-04T12:38:24;4.28;;;1.42;;
53411;SDS011;39307;52.870;13.660;2023-02-04T12:40:50;3.67;;;1.10;;
53411;SDS011;39307;52.870;13.660;2023-02-04T12:43:16;3.72;;;0.80;;
53411;SDS011;39307;52.870;13.660;2023-02-04T12:45:42;1.98;;;0.60;;
53411;SDS011;39307;52.870;13.660;2023-02-04T12:48:09;1.83;;;0.70;;
53411;SDS011;39307;52.870;13.660;2023-02-04T12:50:35;1.98;;;0.68;;
53411;SDS011;39307;52.870;13.660;2023-02-04T12:53:01;2.10;;;0.60;;
53411;SDS011;39307;52.870;13.660;2023-02-04T12:55:27;2.20;;;0.60;;
53411;SDS011;39307;52.870;13.660;2023-02-04T12:57:53;1.85;;;0.88;;
53411;SDS011;39307;52.870;13.660;2023-02-04T13:00:20;2.53;;;1.05;;
53411;SDS011;39307;52.870;13.660;2023-02-04T13:02:46;3.72;;;0.77;;
53411;SDS011;39307;52.870;13.660;2023-02-04T13:05:14;2.97;;;0.80;;
53411;SDS011;39307;52.870;13.660;2023-02-04T13:07:41;1.67;;;0.60;;
53411;SDS011;39307;52.870;13.660;2023-02-04T13:10:08;1.52;;;0.60;;
53411;SDS011;39307;52.870;13.660;2023-02-04T13:12:34;2.45;;;0.77;;
53411;SDS011;39307;52.870;13.660;2023-02-04T13:15:01;2.95;;;0.65;;
53411;SDS011;39307;52.870;13.660;2023-02-04T13:17:27;1.70;;;0.93;;
53411;SDS011;39307;52.870;13.660;2023-02-04T13:19:54;1.92;;;0.80;;
53411;SDS011;39307;52.870;13.660;2023-02-04T13:22:20;2.35;;;0.70;;
53411;SDS011;39307;52.870;13.660;2023-02-04T13:24:46;2.03;;;0.60;;
53411;SDS011;39307;52.870;13.660;2023-02-04T13:27:14;2.65;;;0.70;;
53411;SDS011;39307;52.870;13.660;2023-02-04T13:29:40;2.38;;;0.70;;
53411;SDS011;39307;52.870;13.660;2023-02-04T13:32:06;2.30;;;1.10;;
53411;SDS011;39307;52.870;13.660;2023-02-04T13:34:33;2.15;;;1.20;;
53411;SDS011;39307;52.870;13.660;2023-02-04T13:36:59;4.70;;;3.63;;
53411;SDS011;39307;52.870;13.660;2023-02-04T13:42:28;2.80;;;1.00;;
53411;SDS011;39307;52.870;13.660;2023-02-04T13:44:54;3.72;;;2.75;;
53411;SDS011;39307;52.870;13.660;2023-02-04T13:47:20;2.50;;;1.20;;
53411;SDS011;39307;52.870;13.660;2023-02-04T13:49:47;2.70;;;0.80;;
53411;SDS011;39307;52.870;13.660;2023-02-04T13:52:13;2.47;;;0.70;;
53411;SDS011;39307;52.870;13.660;2023-02-04T13:54:39;1.88;;;0.80;;
53411;SDS011;39307;52.870;13.660;2023-02-04T13:57:05;5.00;;;1.83;;
53411;SDS011;39307;52.870;13.660;2023-02-04T14:02:27;5.43;;;2.72;;
53411;SDS011;39307;52.870;13.660;2023-02-04T14:04:53;11.80;;;7.20;;
53411;SDS011;39307;52.870;13.660;2023-02-04T14:07:19;10.30;;;5.03;;
53411;SDS011;39307;52.870;13.660;2023-02-04T14:09:45;12.07;;;7.88;;
53411;SDS011;39307;52.870;13.660;2023-02-04T14:12:12;5.65;;;3.28;;
53411;SDS011;39307;52.870;13.660;2023-02-04T14:14:38;4.63;;;2.85;;
53411;SDS011;39307;52.870;13.660;2023-02-04T14:17:04;8.02;;;4.13;;
53411;SDS011;39307;52.870;13.660;2023-02-04T14:19:30;7.25;;;4.25;;
53411;SDS011;39307;52.870;13.660;2023-02-04T14:21:56;9.80;;;5.90;;
53411;SDS011;39307;52.870;13.660;2023-02-04T14:24:23;17.53;;;10.87;;
53411;SDS011;39307;52.870;13.660;2023-02-04T14:26:49;4.95;;;2.40;;
53411;SDS011;39307;52.870;13.660;2023-02-04T14:29:15;10.30;;;5.95;;
53411;SDS011;39307;52.870;13.660;2023-02-04T14:31:41;11.88;;;6.75;;
53411;SDS011;39307;52.870;13.660;2023-02-04T14:34:08;8.35;;;4.57;;
53411;SDS011;39307;52.870;13.660;2023-02-04T14:36:34;8.55;;;4.35;;
53411;SDS011;39307;52.870;13.660;2023-02-04T14:39:00;7.35;;;3.22;;
53411;SDS011;39307;52.870;13.660;2023-02-04T14:41:26;11.57;;;5.90;;
53411;SDS011;39307;52.870;13.660;2023-02-04T14:43:52;13.00;;;6.93;;
53411;SDS011;39307;52.870;13.660;2023-02-04T14:46:18;11.47;;;5.83;;
53411;SDS011;39307;52.870;13.660;2023-02-04T14:48:44;15.77;;;8.98;;
53411;SDS011;39307;52.870;13.660;2023-02-04T14:51:10;6.90;;;3.23;;
53411;SDS011;39307;52.870;13.660;2023-02-04T14:56:39;7.97;;;3.72;;